createdAt,value
2023-04-15T00:01:37.253Z,47.66
2023-04-15T00:04:04.749Z,47.51
2023-04-15T00:06:31.781Z,47.96
2023-04-15T00:08:58.615Z,47.86
2023-04-15T00:11:25.947Z,47.49
2023-04-15T00:13:52.719Z,47.68
2023-04-15T00:16:19.438Z,47.41
2023-04-15T00:18:46.323Z,48.29
2023-04-15T00:21:13.209Z,47.89
2023-04-15T00:23:39.872Z,47.75
2023-04-15T00:26:07.376Z,48.06
2023-04-15T00:28:34.148Z,48.01
2023-04-15T00:31:00.885Z,48.55
2023-04-15T00:33:27.594Z,49.00
2023-04-15T00:35:54.330Z,48.82
2023-04-15T00:38:21.046Z,47.94
2023-04-15T00:40:48.107Z,48.57
2023-04-15T00:43:17.590Z,49.43
2023-04-15T00:45:44.584Z,49.50
2023-04-15T00:48:12.134Z,48.95
2023-04-15T00:50:39.216Z,49.00
2023-04-15T00:53:06.112Z,48.45
2023-04-15T00:55:32.930Z,47.94
2023-04-15T00:57:59.847Z,48.15
2023-04-15T01:00:27.007Z,47.85
2023-04-15T01:02:53.871Z,48.12
2023-04-15T01:05:20.722Z,47.79
2023-04-15T01:07:48.758Z,48.19
2023-04-15T01:10:15.719Z,48.47
2023-04-15T01:12:43.253Z,49.44
2023-04-15T01:15:11.076Z,49.00
2023-04-15T01:17:38.588Z,49.25
2023-04-15T01:20:10.141Z,49.86
2023-04-15T01:22:38.343Z,50.23
2023-04-15T01:25:13.114Z,49.94
2023-04-15T01:27:42.290Z,49.97
2023-04-15T01:30:10.539Z,50.21
2023-04-15T01:32:37.812Z,50.48
2023-04-15T01:35:24.008Z,50.45
2023-04-15T01:37:51.627Z,50.46
2023-04-15T01:40:18.464Z,50.25
2023-04-15T01:42:46.670Z,50.47
2023-04-15T01:45:17.455Z,51.09
2023-04-15T01:47:45.650Z,51.18
2023-04-15T01:50:13.988Z,50.68
2023-04-15T01:52:42.381Z,51.09
2023-04-15T01:55:14.064Z,51.00
2023-04-15T01:57:42.364Z,50.24
2023-04-15T02:00:11.590Z,49.72
2023-04-15T02:02:43.636Z,49.88
2023-04-15T02:05:11.742Z,49.87
2023-04-15T02:07:39.620Z,49.80
2023-04-15T02:10:07.882Z,49.49
2023-04-15T02:12:36.822Z,49.43
2023-04-15T02:15:05.692Z,48.96
2023-04-15T02:17:37.635Z,47.87
2023-04-15T02:20:06.323Z,46.76
2023-04-15T02:22:34.846Z,46.41
2023-04-15T02:25:02.855Z,46.82
2023-04-15T02:27:33.196Z,47.90
2023-04-15T02:30:01.212Z,50.18
2023-04-15T02:32:29.399Z,50.15
2023-04-15T02:35:02.012Z,49.74
2023-04-15T02:37:31.743Z,49.68
2023-04-15T02:40:00.944Z,50.08
2023-04-15T02:42:30.336Z,50.38
2023-04-15T02:45:01.704Z,51.82
2023-04-15T02:47:34.863Z,52.07
2023-04-15T02:50:08.138Z,51.83
2023-04-15T02:52:36.237Z,52.20
2023-04-15T02:55:05.199Z,51.71
2023-04-15T02:57:33.357Z,51.51
2023-04-15T03:00:09.507Z,51.38
2023-04-15T03:02:40.265Z,51.42
2023-04-15T03:05:12.674Z,51.40
2023-04-15T03:07:43.031Z,50.73
2023-04-15T03:10:12.096Z,51.08
2023-04-15T03:12:40.904Z,50.61
2023-04-15T03:15:11.800Z,50.23
2023-04-15T03:17:44.622Z,50.04
2023-04-15T03:20:12.841Z,50.16
2023-04-15T03:22:40.854Z,49.95
2023-04-15T03:25:09.783Z,49.60
2023-04-15T03:27:38.765Z,49.00
2023-04-15T03:30:07.890Z,48.52
2023-04-15T03:32:38.889Z,49.12
2023-04-15T03:35:08.552Z,48.82
2023-04-15T03:37:36.778Z,49.26
2023-04-15T03:40:05.583Z,49.02
2023-04-15T03:42:33.541Z,48.86
2023-04-15T03:45:01.598Z,48.90
2023-04-15T03:47:29.861Z,49.08
2023-04-15T03:49:57.801Z,48.82
2023-04-15T03:52:26.057Z,48.69
2023-04-15T03:54:54.046Z,48.33
2023-04-15T03:57:21.950Z,47.56
2023-04-15T03:59:49.876Z,47.82
2023-04-15T04:02:17.994Z,47.76
2023-04-15T04:04:46.386Z,48.70
2023-04-15T04:07:18.243Z,48.96
2023-04-15T04:09:47.397Z,49.17
2023-04-15T04:12:15.653Z,49.23
2023-04-15T04:14:43.763Z,49.65
2023-04-15T04:17:11.788Z,50.12
2023-04-15T04:19:39.918Z,50.04
2023-04-15T04:22:07.874Z,50.17
2023-04-15T04:24:35.950Z,49.96
2023-04-15T04:27:03.952Z,50.12
2023-04-15T04:29:31.954Z,49.76
2023-04-15T04:31:59.923Z,49.62
2023-04-15T04:34:27.979Z,50.16
2023-04-15T04:36:56.004Z,50.65
2023-04-15T04:39:23.990Z,51.34
2023-04-15T04:41:54.588Z,51.61
2023-04-15T04:44:22.526Z,51.88
2023-04-15T04:46:50.617Z,51.72
2023-04-15T04:49:18.577Z,51.56
2023-04-15T04:51:48.468Z,51.62
2023-04-15T04:54:16.957Z,51.22
2023-04-15T04:56:44.941Z,50.45
2023-04-15T04:59:13.098Z,50.02
2023-04-15T05:01:41.197Z,48.74
2023-04-15T05:04:09.461Z,48.91
2023-04-15T05:06:37.655Z,48.65
2023-04-15T05:09:05.932Z,48.33
2023-04-15T05:11:33.942Z,48.78
2023-04-15T05:14:02.430Z,49.17
2023-04-15T05:16:30.459Z,49.69
2023-04-15T05:18:58.477Z,49.46
2023-04-15T05:21:27.693Z,49.90
2023-04-15T05:23:55.994Z,50.88
2023-04-15T05:26:26.493Z,50.76
2023-04-15T05:28:55.048Z,50.74
2023-04-15T05:31:23.019Z,50.01
2023-04-15T05:33:51.348Z,49.99
2023-04-15T05:36:19.324Z,50.44
2023-04-15T05:38:47.404Z,50.32
2023-04-15T05:41:17.775Z,50.24
2023-04-15T05:43:47.748Z,51.42
2023-04-15T05:46:16.499Z,51.15
2023-04-15T05:48:44.499Z,51.43
2023-04-15T05:51:12.591Z,51.49
2023-04-15T05:53:41.669Z,51.24
2023-04-15T05:56:09.758Z,52.09
2023-04-15T05:58:38.336Z,51.21
2023-04-15T06:01:06.458Z,50.57
2023-04-15T06:03:34.537Z,50.15
2023-04-15T06:06:02.620Z,49.74
2023-04-15T06:08:30.769Z,49.91
2023-04-15T06:10:59.113Z,49.57
2023-04-15T06:13:27.137Z,49.00
2023-04-15T06:15:55.395Z,48.06
2023-04-15T06:18:23.382Z,47.27
2023-04-15T06:20:51.652Z,47.30
2023-04-15T06:23:19.552Z,47.68
2023-04-15T06:25:47.460Z,48.58
2023-04-15T06:28:15.608Z,47.00
2023-04-15T06:30:43.569Z,46.21
2023-04-15T06:33:11.613Z,46.12
2023-04-15T06:35:40.092Z,44.32
2023-04-15T06:38:08.069Z,44.19
2023-04-15T06:40:36.047Z,42.97
2023-04-15T06:43:04.919Z,41.68
2023-04-15T06:45:33.160Z,39.59
2023-04-15T06:48:01.271Z,37.76
2023-04-15T06:50:29.219Z,36.14
2023-04-15T06:52:57.378Z,34.08
2023-04-15T06:55:25.295Z,34.20
2023-04-15T06:57:53.251Z,33.53
2023-04-15T07:00:21.401Z,33.41
2023-04-15T07:02:49.443Z,32.56
2023-04-15T07:05:18.102Z,31.69
2023-04-15T07:07:46.117Z,31.33
2023-04-15T07:10:15.889Z,30.30
2023-04-15T07:12:43.937Z,30.02
2023-04-15T07:15:12.315Z,29.99
2023-04-15T07:17:43.140Z,30.66
2023-04-15T07:20:11.679Z,29.26
2023-04-15T07:22:40.167Z,28.72
2023-04-15T07:25:08.951Z,26.46
2023-04-15T07:27:36.884Z,27.24
2023-04-15T07:30:05.539Z,27.34
2023-04-15T07:32:33.598Z,26.88
2023-04-15T07:35:02.197Z,28.21
2023-04-15T07:37:30.235Z,27.53
2023-04-15T07:39:58.272Z,26.73
2023-04-15T07:42:26.368Z,25.52
2023-04-15T07:44:54.441Z,25.35
2023-04-15T07:47:22.501Z,24.83
2023-04-15T07:49:51.523Z,24.02
2023-04-15T07:52:19.557Z,23.77
2023-04-15T07:54:47.587Z,21.93
2023-04-15T07:57:16.910Z,21.39
2023-04-15T07:59:44.994Z,20.93
2023-04-15T08:02:13.092Z,19.47
2023-04-15T08:04:41.299Z,18.59
2023-04-15T08:07:09.325Z,18.26
2023-04-15T08:09:37.496Z,18.06
2023-04-15T08:12:05.709Z,17.29
2023-04-15T08:14:33.736Z,16.45
2023-04-15T08:17:01.725Z,16.28
2023-04-15T08:19:30.299Z,15.58
2023-04-15T08:21:59.121Z,17.12
2023-04-15T08:24:27.294Z,16.22
2023-04-15T08:26:55.328Z,16.13
2023-04-15T08:29:23.730Z,15.24
2023-04-15T08:31:51.910Z,15.37
2023-04-15T08:34:19.966Z,15.33
2023-04-15T08:36:48.011Z,15.96
2023-04-15T08:39:15.992Z,15.75
2023-04-15T08:41:52.213Z,14.99
2023-04-15T08:44:21.976Z,15.65
2023-04-15T08:46:51.682Z,14.58
2023-04-15T08:49:22.494Z,13.98
2023-04-15T08:51:50.430Z,13.81
2023-04-15T08:54:18.999Z,12.93
2023-04-15T08:56:47.717Z,13.26
2023-04-15T08:59:16.628Z,13.53
2023-04-15T09:01:45.377Z,14.36
2023-04-15T09:04:14.417Z,16.68
2023-04-15T09:06:42.472Z,16.22
2023-04-15T09:09:10.554Z,14.33
2023-04-15T09:11:38.675Z,13.54
2023-04-15T09:14:06.856Z,14.80
2023-04-15T09:17:01.332Z,15.02
2023-04-15T09:19:30.388Z,15.32
2023-04-15T09:21:59.619Z,14.72
2023-04-15T09:24:37.594Z,14.44
2023-04-15T09:27:06.114Z,13.41
2023-04-15T09:29:34.441Z,13.66
2023-04-15T09:32:15.952Z,12.94
2023-04-15T09:34:44.506Z,11.98
2023-04-15T09:37:24.605Z,12.22
2023-04-15T09:39:59.434Z,12.06
2023-04-15T09:42:28.235Z,11.84
2023-04-15T09:44:56.607Z,10.64
2023-04-15T09:47:32.165Z,10.80
2023-04-15T09:50:01.298Z,10.36
2023-04-15T09:52:30.418Z,10.63
2023-04-15T09:54:59.816Z,10.92
2023-04-15T09:57:38.729Z,11.10
2023-04-15T10:00:08.978Z,10.97
2023-04-15T10:02:39.953Z,10.42
2023-04-15T10:05:11.967Z,11.36
2023-04-15T10:07:41.248Z,11.20
2023-04-15T10:10:10.815Z,8.96
2023-04-15T10:12:41.566Z,9.65
2023-04-15T10:15:16.912Z,9.49
2023-04-15T10:17:45.709Z,10.32
2023-04-15T10:20:15.028Z,10.45
2023-04-15T10:22:45.440Z,10.04
2023-04-15T10:25:15.746Z,9.82
2023-04-15T10:27:43.780Z,10.14
2023-04-15T10:30:12.540Z,10.24
2023-04-15T10:32:41.473Z,9.10
2023-04-15T10:35:09.975Z,10.06
2023-04-15T10:37:39.268Z,10.62
2023-04-15T10:40:32.676Z,10.52
2023-04-15T10:43:02.538Z,11.42
2023-04-15T10:45:36.787Z,11.08
2023-04-15T10:48:08.205Z,11.26
2023-04-15T10:50:37.679Z,12.69
2023-04-15T10:53:06.020Z,11.53
2023-04-15T10:55:34.663Z,12.36
2023-04-15T10:58:03.030Z,13.22
2023-04-15T11:00:32.893Z,13.54
2023-04-15T11:03:07.801Z,13.40
2023-04-15T11:05:42.106Z,15.48
2023-04-15T11:08:11.176Z,14.86
2023-04-15T11:10:39.055Z,15.04
2023-04-15T11:13:09.930Z,15.90
2023-04-15T11:15:47.858Z,16.42
2023-04-15T11:18:28.101Z,16.86
2023-04-15T11:20:59.235Z,17.90
2023-04-15T11:23:28.761Z,18.56
2023-04-15T11:25:58.079Z,19.68
2023-04-15T11:28:31.178Z,20.13
2023-04-15T11:31:06.307Z,20.89
2023-04-15T11:33:34.497Z,19.87
2023-04-15T11:36:04.218Z,18.90
2023-04-15T11:38:34.014Z,18.81
2023-04-15T11:41:02.046Z,18.25
2023-04-15T11:43:32.354Z,16.64
2023-04-15T11:46:02.128Z,15.95
2023-04-15T11:48:36.128Z,15.62
2023-04-15T11:51:06.486Z,14.26
2023-04-15T11:53:39.516Z,14.46
2023-04-15T11:56:07.029Z,13.74
2023-04-15T11:58:37.578Z,13.59
2023-04-15T12:01:05.323Z,13.80
2023-04-15T12:03:43.452Z,15.23
2023-04-15T12:06:21.690Z,17.25
2023-04-15T12:08:51.169Z,16.85
2023-04-15T12:11:17.947Z,16.24
2023-04-15T12:13:49.258Z,15.79
2023-04-15T12:16:19.945Z,15.68
2023-04-15T12:18:48.225Z,15.56
2023-04-15T12:21:15.357Z,15.03
2023-04-15T12:23:53.625Z,15.55
2023-04-15T12:26:51.201Z,14.74
2023-04-15T12:29:18.339Z,14.87
2023-04-15T12:31:52.152Z,15.05
2023-04-15T12:34:30.924Z,16.69
2023-04-15T12:36:59.350Z,17.46
2023-04-15T12:39:30.484Z,17.49
2023-04-15T12:41:59.380Z,17.48
2023-04-15T12:44:26.166Z,17.64
2023-04-15T12:46:53.543Z,18.56
2023-04-15T12:49:24.380Z,19.28
2023-04-15T12:51:53.179Z,20.12
2023-04-15T12:54:20.434Z,20.39
2023-04-15T12:56:48.375Z,20.51
2023-04-15T12:59:16.513Z,21.00
2023-04-15T13:01:43.570Z,21.85
2023-04-15T13:04:10.612Z,22.23
2023-04-15T13:06:38.413Z,21.83
2023-04-15T13:09:06.123Z,22.30
2023-04-15T13:11:33.939Z,22.89
2023-04-15T13:14:01.950Z,22.09
2023-04-15T13:16:29.447Z,23.00
2023-04-15T13:18:56.297Z,21.80
2023-04-15T13:21:23.054Z,21.43
2023-04-15T13:23:52.592Z,20.97
2023-04-15T13:26:19.531Z,20.23
2023-04-15T13:28:46.625Z,19.52
2023-04-15T13:31:13.617Z,19.21
2023-04-15T13:33:40.478Z,19.19
2023-04-15T13:36:08.279Z,19.61
2023-04-15T13:38:35.160Z,19.73
2023-04-15T13:41:01.947Z,20.13
2023-04-15T13:43:28.802Z,20.40
2023-04-15T13:45:55.675Z,20.89
2023-04-15T13:48:22.360Z,21.37
2023-04-15T13:50:49.019Z,20.47
2023-04-15T13:53:15.843Z,20.44
2023-04-15T13:55:43.020Z,20.08
2023-04-15T13:58:10.260Z,20.88
2023-04-15T14:00:37.240Z,19.95
2023-04-15T14:03:04.537Z,19.73
2023-04-15T14:05:32.477Z,19.95
2023-04-15T14:08:00.066Z,20.09
2023-04-15T14:10:26.774Z,20.76
2023-04-15T14:12:53.518Z,21.05
2023-04-15T14:15:21.041Z,21.31
2023-04-15T14:17:47.763Z,21.91
2023-04-15T14:20:16.827Z,21.42
2023-04-15T14:22:43.989Z,21.38
2023-04-15T14:25:15.129Z,21.58
2023-04-15T14:27:46.907Z,21.79
2023-04-15T14:30:13.704Z,22.01
2023-04-15T14:32:40.741Z,22.71
2023-04-15T14:35:08.861Z,22.48
2023-04-15T14:37:35.999Z,23.20
2023-04-15T14:40:02.957Z,23.01
2023-04-15T14:42:29.716Z,23.09
2023-04-15T14:44:56.415Z,23.67
2023-04-15T14:47:23.413Z,23.26
2023-04-15T14:49:50.739Z,23.22
2023-04-15T14:52:17.467Z,23.38
2023-04-15T14:54:44.167Z,23.31
2023-04-15T14:57:11.103Z,23.72
2023-04-15T14:59:37.844Z,24.76
2023-04-15T15:02:04.723Z,24.46
2023-04-15T15:04:33.456Z,24.00
2023-04-15T15:07:00.276Z,25.00
2023-04-15T15:09:27.458Z,25.29
2023-04-15T15:11:54.156Z,25.26
2023-04-15T15:16:47.819Z,26.01
2023-04-15T15:19:14.558Z,25.04
2023-04-15T15:21:41.228Z,25.46
2023-04-15T15:24:07.930Z,26.26
2023-04-15T15:26:34.791Z,25.93
2023-04-15T15:29:02.173Z,25.94
2023-04-15T15:31:28.976Z,26.57
2023-04-15T15:33:55.699Z,26.74
2023-04-15T15:36:22.397Z,26.63
2023-04-15T15:38:49.084Z,26.49
2023-04-15T15:41:15.962Z,26.88
2023-04-15T15:43:42.715Z,26.56
2023-04-15T15:46:09.647Z,27.25
2023-04-15T15:48:36.784Z,27.25
2023-04-15T15:51:04.218Z,27.47
2023-04-15T15:53:31.111Z,27.70
2023-04-15T15:55:57.903Z,27.89
2023-04-15T15:58:24.601Z,28.07
2023-04-15T16:00:51.378Z,28.04
2023-04-15T16:03:18.506Z,29.00
2023-04-15T16:05:46.997Z,29.02
2023-04-15T16:08:13.793Z,29.06
2023-04-15T16:10:40.827Z,30.20
2023-04-15T16:13:07.849Z,29.74
2023-04-15T16:15:34.586Z,30.33
2023-04-15T16:18:01.481Z,30.71
2023-04-15T16:20:28.851Z,30.67
2023-04-15T16:22:58.922Z,30.63
2023-04-15T16:25:25.862Z,31.43
2023-04-15T16:28:01.463Z,30.78
2023-04-15T16:30:40.108Z,31.06
2023-04-15T16:33:08.196Z,31.61
2023-04-15T16:35:34.985Z,31.50
2023-04-15T16:38:01.950Z,31.52
2023-04-15T16:40:28.700Z,31.55
2023-04-15T16:42:55.720Z,31.97
2023-04-15T16:45:22.507Z,32.44
2023-04-15T16:47:49.190Z,32.96
2023-04-15T16:50:16.083Z,32.81
2023-04-15T16:52:42.963Z,32.92
2023-04-15T16:55:09.670Z,33.29
2023-04-15T16:58:00.766Z,33.94
2023-04-15T17:00:23.074Z,34.82
2023-04-15T17:02:49.991Z,34.61
2023-04-15T17:05:16.943Z,34.55
2023-04-15T17:07:43.646Z,34.71
2023-04-15T17:10:10.592Z,34.97
2023-04-15T17:12:37.409Z,34.77
2023-04-15T17:15:04.450Z,35.20
2023-04-15T17:17:31.488Z,35.83
2023-04-15T17:19:58.218Z,35.82
2023-04-15T17:22:25.250Z,35.69
2023-04-15T17:24:52.063Z,35.41
2023-04-15T17:27:21.192Z,35.71
2023-04-15T17:29:48.044Z,35.83
2023-04-15T17:32:35.129Z,36.23
2023-04-15T17:35:23.406Z,36.37
2023-04-15T17:38:10.281Z,36.79
2023-04-15T17:40:56.910Z,36.90
2023-04-15T17:43:43.591Z,37.40
2023-04-15T17:46:30.766Z,37.96
2023-04-15T17:49:17.448Z,37.84
2023-04-15T17:52:04.582Z,38.82
2023-04-15T17:54:51.229Z,38.93
2023-04-15T17:57:37.913Z,38.59
2023-04-15T18:00:24.728Z,38.84
2023-04-15T18:03:11.535Z,39.05
2023-04-15T18:05:58.366Z,38.99
2023-04-15T18:08:45.077Z,39.49
2023-04-15T18:11:33.232Z,39.53
2023-04-15T18:14:32.993Z,39.79
2023-04-15T18:17:20.816Z,39.48
2023-04-15T18:20:07.868Z,39.94
2023-04-15T18:22:34.711Z,40.70
2023-04-15T18:25:04.192Z,40.15
2023-04-15T18:27:35.455Z,39.72
2023-04-15T18:30:02.197Z,40.16
2023-04-15T18:32:31.918Z,39.62
2023-04-15T18:34:58.768Z,40.35
2023-04-15T18:37:26.924Z,40.87
2023-04-15T18:39:54.160Z,40.67
2023-04-15T18:42:21.619Z,40.78
2023-04-15T18:44:48.974Z,41.13
2023-04-15T18:47:16.152Z,41.17
2023-04-15T18:49:42.878Z,40.91
2023-04-15T18:52:10.264Z,40.96
2023-04-15T18:54:37.777Z,41.15
2023-04-15T18:57:04.629Z,41.29
2023-04-15T18:59:31.627Z,41.27
2023-04-15T19:02:00.025Z,41.80
2023-04-15T19:04:29.234Z,41.84
2023-04-15T19:06:56.387Z,41.97
2023-04-15T19:09:23.119Z,42.23
2023-04-15T19:11:49.819Z,42.66
2023-04-15T19:14:17.744Z,42.63
2023-04-15T19:16:44.550Z,42.64
2023-04-15T19:19:14.399Z,42.83
2023-04-15T19:21:41.547Z,43.17
2023-04-15T19:24:08.273Z,43.37
2023-04-15T19:26:36.667Z,43.78
2023-04-15T19:29:03.745Z,43.57
2023-04-15T19:31:30.783Z,43.66
2023-04-15T19:33:57.467Z,43.95
2023-04-15T19:36:24.205Z,44.07
2023-04-15T19:38:51.034Z,44.22
2023-04-15T19:41:17.740Z,44.57
2023-04-15T19:43:44.400Z,44.75
2023-04-15T19:46:13.201Z,44.88
2023-04-15T19:48:40.128Z,45.16
2023-04-15T19:51:06.921Z,45.05
2023-04-15T19:53:33.644Z,45.02
2023-04-15T19:56:00.341Z,45.60
2023-04-15T19:58:27.081Z,45.70
2023-04-15T20:00:53.992Z,45.99
2023-04-15T20:03:20.938Z,46.08
2023-04-15T20:05:47.831Z,45.76
2023-04-15T20:08:14.689Z,46.05
2023-04-15T20:10:41.604Z,46.17
2023-04-15T20:13:08.485Z,46.60
2023-04-15T20:15:35.464Z,46.58
2023-04-15T20:18:02.373Z,47.22
2023-04-15T20:20:29.317Z,47.43
2023-04-15T20:22:56.197Z,47.46
2023-04-15T20:25:23.008Z,47.68
2023-04-15T20:27:49.790Z,47.54
2023-04-15T20:30:16.484Z,47.66
2023-04-15T20:32:43.315Z,48.04
2023-04-15T20:35:10.115Z,48.72
2023-04-15T20:37:37.628Z,49.18
2023-04-15T20:40:04.675Z,49.19
2023-04-15T20:42:34.523Z,49.50
2023-04-15T20:45:02.148Z,49.47
2023-04-15T20:47:29.465Z,50.04
2023-04-15T20:49:56.276Z,49.92
2023-04-15T20:52:23.027Z,49.89
2023-04-15T20:54:50.389Z,49.93
2023-04-15T20:57:17.427Z,50.79
2023-04-15T20:59:44.142Z,50.97
2023-04-15T21:02:11.086Z,51.31
2023-04-15T21:04:40.762Z,51.04
2023-04-15T21:07:07.468Z,50.99
2023-04-15T21:09:34.217Z,50.62
2023-04-15T21:12:02.142Z,50.78
2023-04-15T21:14:29.588Z,51.33
2023-04-15T21:16:58.201Z,50.78
2023-04-15T21:19:25.049Z,50.81
2023-04-15T21:21:52.274Z,51.00
2023-04-15T21:24:18.964Z,51.10
2023-04-15T21:26:45.876Z,50.75
2023-04-15T21:29:12.815Z,50.44
2023-04-15T21:31:40.185Z,50.19
2023-04-15T21:34:07.054Z,50.87
2023-04-15T21:36:34.230Z,50.57
2023-04-15T21:39:01.084Z,50.52
2023-04-15T21:41:28.021Z,50.50
2023-04-15T21:43:54.806Z,50.11
2023-04-15T21:46:25.344Z,50.35
2023-04-15T21:48:53.366Z,50.36
2023-04-15T21:51:20.351Z,50.25
2023-04-15T21:53:47.166Z,50.56
2023-04-15T21:56:14.074Z,50.42
2023-04-15T21:58:40.820Z,50.11
2023-04-15T22:01:07.563Z,50.06
2023-04-15T22:03:35.242Z,50.67
2023-04-15T22:06:05.248Z,50.97
2023-04-15T22:08:41.274Z,51.09
2023-04-15T22:11:23.058Z,51.00
2023-04-15T22:13:49.865Z,51.42
2023-04-15T22:16:16.561Z,50.87
2023-04-15T22:18:43.376Z,50.92
2023-04-15T22:21:10.163Z,51.30
2023-04-15T22:23:36.902Z,51.26
2023-04-15T22:26:04.836Z,51.02
2023-04-15T22:28:31.579Z,51.35
2023-04-15T22:30:58.968Z,51.20
2023-04-15T22:33:25.781Z,50.83
2023-04-15T22:35:52.456Z,50.93
2023-04-15T22:38:19.152Z,50.83
2023-04-15T22:40:46.433Z,51.03
2023-04-15T22:43:13.165Z,51.26
2023-04-15T22:45:40.388Z,51.10
2023-04-15T22:48:07.092Z,51.35
2023-04-15T22:50:37.094Z,51.20
2023-04-15T22:53:03.871Z,51.28
2023-04-15T22:55:30.873Z,51.72
2023-04-15T22:57:57.636Z,51.54
2023-04-15T23:00:24.384Z,51.82
2023-04-15T23:02:51.173Z,51.98
2023-04-15T23:05:18.132Z,51.66
2023-04-15T23:07:44.820Z,52.26
2023-04-15T23:10:11.594Z,51.73
2023-04-15T23:12:38.351Z,52.01
2023-04-15T23:15:05.487Z,51.66
2023-04-15T23:17:32.309Z,51.32
2023-04-15T23:19:59.072Z,51.49
2023-04-15T23:22:25.882Z,51.18
2023-04-15T23:24:52.555Z,51.76
2023-04-15T23:27:19.245Z,51.62
2023-04-15T23:29:46.070Z,51.69
2023-04-15T23:32:12.772Z,51.59
2023-04-15T23:34:39.466Z,51.75
2023-04-15T23:37:06.269Z,51.47
2023-04-15T23:39:33.144Z,51.30
2023-04-15T23:41:59.963Z,51.69
2023-04-15T23:44:27.021Z,51.66
2023-04-15T23:46:53.718Z,51.42
2023-04-15T23:49:20.720Z,51.20
2023-04-15T23:51:47.478Z,51.13
2023-04-15T23:54:14.766Z,51.12
2023-04-15T23:56:41.457Z,51.43
2023-04-15T23:59:08.551Z,51.39
